Skiathos, Greece
Current Conditions -  °F | °C
As of 12:50 PM on Wednesday 22 Oct 2014 (Local Time) from LGBL Reporting Station
Clear Clear  
Wind Chill: 73°   Ceiling: Unl
Heat Index: 73°   Visibility: 6mi
Dew Point: 48°   Wind: 7mph
Humidity: 41%   Direction: 100°E
Pressure: 29.74"   Gusts: NA
Location:  39.17°N, 23.48°E
Report Text: LGBL 220950Z 10006KT CAVOK 23/09 Q1007
Loading
Personal Weather Stations






























Interactive Weather Map
Tropical Storm Tracking
New forecast layout! Learn more

10-Day Weather Forecast

Advertisements
Track Severe Weather on mobile